EGHHEGBB

Guest
Details From EGHH - Bournemouth
To EGBB - Birmingham
Flight Number -
Tags decoded
Created
Modified
Stats Distance 104 nm / 193 km
Max Altitude 0 ft / 0 m
Waypoints 4
Social Downloads 4
Likes 0
Share VATSIM

Download

Looking for another format? Having issues loading an existing format? Contact us
Advertisement - Login to hide

Notes

Requested: EGHH HON19 HON14 EGBB

Route

EGHH HON19 HON14 EGBB

ID Type Via Altitude Latitude Longitude Leg Dist Tot Dist Heading (true) Name
O EGHH APT - 0 ft / 0 m 50.78007˚ -1.84253˚ - 0 nm - Bournemouth
HON19 FIX - 0 ft / 0 m 52.05000˚ -1.50417˚ 77 nm 77 nm 9° / 10° -
HON14 FIX - 0 ft / 0 m 52.26996˚ -1.53645˚ 13 nm 90 nm 355° / 355° -
O EGBB APT - 0 ft / 0 m 52.45597˚ -1.75038˚ 13 nm 104 nm 325° / 325° Birmingham

Altitude Profile

Advertisement - Login to hide

EGHH

Details ICAO EGHH (BOH)
Name Bournemouth
Region United Kingdom
Timezone Europe/London (UTC+0.0)
Stats Elevation 38 ft / 12 m (AMSL)
Location 50.780065° -1.842533°
Runways 1
Magnetic Variation 0.961° W

METAR

EGHH 171420Z 24008KT 9999 FEW012 BKN036 09/08 Q1022

Decode

TAF

Not found

Departure Runways

ID Width Length Bearing (true) Bearing (mag) Surface Threshold Offset Overrun Length
08 151 ft / 46 m 7,440 ft / 2,268 m 75.27° 76.23° Asphalt 1,424 ft / 434 m 0 ft / 0 m
26 151 ft / 46 m 7,440 ft / 2,268 m 255.29° 256.25° Asphalt 0 ft / 0 m 328 ft / 100 m

EGBB

Details ICAO EGBB (BHX)
Name Birmingham
Region United Kingdom
Timezone Europe/London (UTC+0.0)
Stats Elevation 327 ft / 100 m (AMSL)
Location 52.455966° -1.750378°
Runways 1
Magnetic Variation 1.139° W

METAR

EGBB 171420Z 22009KT 9000 SCT006 BKN014 07/07 Q1017

Decode

TAF

TAF EGBB 171103Z 1712/1812 22010KT 9999 FEW010 SCT020 BECMG 1712/1715 FEW007 BKN010 TEMPO 1712/1718 6000 -RADZ BKN007 PROB30 TEMPO 1712/1718 3000 RADZ BR BKN004 BECMG 1716/1718 31005KT BECMG 1718/1721 FEW030 TEMPO 1803/1812 8000 BKN008 PROB30 TEMPO 1805/1811 3000 BR BKN004

Decode

Destination Runways

ID Width Length Bearing (true) Bearing (mag) Surface Threshold Offset Overrun Length
15 151 ft / 46 m 8,477 ft / 2,584 m 145.87° 147.01° Asphalt 925 ft / 282 m 0 ft / 0 m
33 151 ft / 46 m 8,477 ft / 2,584 m 325.89° 327.03° Asphalt 958 ft / 292 m 0 ft / 0 m

Approach Navaids

Runway Type Ident Frequency Range Bearing (true) Bearing (mag) Slope Elevation
15 Localiser IBIR 110.10 MHz 18 nm / 33 km 145.89° 147.03° - 325 ft / 99 m (AMSL)
15 Glidescope IBIR 110.10 MHz 10 nm / 19 km 145.88° 147.02° 3.00° 325 ft / 99 m (AMSL)
15 DME IBIR 110.10 MHz 18 nm / 33 km - - - 349 ft / 106 m (AMSL)
33 Localiser IBM 110.10 MHz 18 nm / 33 km 325.87° 327.00° - 325 ft / 99 m (AMSL)
33 Glidescope IBM 110.10 MHz 10 nm / 19 km 325.88° 327.02° 3.00° 325 ft / 99 m (AMSL)
33 DME IBM 110.10 MHz 18 nm / 33 km - - - 327 ft / 100 m (AMSL)

Popular Alternatives